createdAt,value
2018-04-15T00:00:25.282Z,81.50
2018-04-15T00:02:53.964Z,56.67
2018-04-15T00:05:21.606Z,58.20
2018-04-15T00:07:49.961Z,51.08
2018-04-15T00:10:17.618Z,53.10
2018-04-15T00:12:45.221Z,56.08
2018-04-15T00:15:13.093Z,51.28
2018-04-15T00:17:40.706Z,50.28
2018-04-15T00:20:08.296Z,61.60
2018-04-15T00:22:36.694Z,55.60
2018-04-15T00:25:04.381Z,53.42
2018-04-15T00:27:32.050Z,71.10
2018-04-15T00:29:59.651Z,53.38
2018-04-15T00:32:27.292Z,63.15
2018-04-15T00:34:54.940Z,57.70
2018-04-15T00:37:22.566Z,65.30
2018-04-15T00:39:50.578Z,67.65
2018-04-15T00:42:18.186Z,50.67
2018-04-15T00:44:46.557Z,47.28
2018-04-15T00:47:14.174Z,95.82
2018-04-15T00:49:41.832Z,81.70
2018-04-15T00:52:09.438Z,53.35
2018-04-15T00:54:37.107Z,75.28
2018-04-15T00:57:05.531Z,94.62
2018-04-15T00:59:33.129Z,85.68
2018-04-15T01:02:00.781Z,67.12
2018-04-15T01:04:28.413Z,97.03
2018-04-15T01:06:56.900Z,86.55
2018-04-15T01:09:24.510Z,50.40
2018-04-15T01:11:52.896Z,68.30
2018-04-15T01:14:20.560Z,70.00
2018-04-15T01:16:48.165Z,78.30
2018-04-15T01:19:15.855Z,51.00
2018-04-15T01:21:43.461Z,50.80
2018-04-15T01:24:11.143Z,55.05
2018-04-15T01:26:38.889Z,49.58
2018-04-15T01:29:06.555Z,48.33
2018-04-15T01:31:34.210Z,57.40
2018-04-15T01:34:01.913Z,54.45
2018-04-15T01:36:29.541Z,52.55
2018-04-15T01:38:57.146Z,51.37
2018-04-15T01:41:24.785Z,54.63
2018-04-15T01:43:52.377Z,54.65
2018-04-15T01:46:19.988Z,64.80
2018-04-15T01:48:47.664Z,63.80
2018-04-15T01:51:15.328Z,62.50
2018-04-15T01:53:42.984Z,61.25
2018-04-15T01:56:10.605Z,54.42
2018-04-15T01:58:38.182Z,124.80
2018-04-15T02:01:05.937Z,144.55
2018-04-15T02:03:33.599Z,60.20
2018-04-15T02:06:02.035Z,50.75
2018-04-15T02:08:30.874Z,60.45
2018-04-15T02:10:59.245Z,97.62
2018-04-15T02:13:26.886Z,65.57
2018-04-15T02:15:54.498Z,60.60
2018-04-15T02:18:22.087Z,62.05
2018-04-15T02:20:49.733Z,57.72
2018-04-15T02:23:17.346Z,61.15
2018-04-15T02:25:45.048Z,60.70
2018-04-15T02:28:12.681Z,62.17
2018-04-15T02:30:41.070Z,68.18
2018-04-15T02:33:08.683Z,65.12
2018-04-15T02:35:36.271Z,64.50
2018-04-15T02:38:04.692Z,67.85
2018-04-15T02:40:32.303Z,76.05
2018-04-15T02:42:59.916Z,84.00
2018-04-15T02:45:27.543Z,109.12
2018-04-15T02:47:55.944Z,67.03
2018-04-15T02:50:23.583Z,94.78
2018-04-15T02:52:51.202Z,93.30
2018-04-15T02:55:18.863Z,85.97
2018-04-15T02:57:46.504Z,109.55
2018-04-15T03:00:14.112Z,91.32
2018-04-15T03:02:41.770Z,97.55
2018-04-15T03:05:09.402Z,66.90
2018-04-15T03:07:36.988Z,80.85
2018-04-15T03:10:04.566Z,90.05
2018-04-15T03:12:32.985Z,80.32
2018-04-15T03:15:00.656Z,95.00
2018-04-15T03:17:28.256Z,75.70
2018-04-15T03:19:55.902Z,87.95
2018-04-15T03:22:23.528Z,71.62
2018-04-15T03:24:51.191Z,70.60
2018-04-15T03:27:18.886Z,80.65
2018-04-15T03:29:46.516Z,96.07
2018-04-15T03:32:14.103Z,99.50
2018-04-15T03:34:41.756Z,104.95
2018-04-15T03:37:09.387Z,95.95
2018-04-15T03:39:37.090Z,89.93
2018-04-15T03:42:04.666Z,93.15
2018-04-15T03:44:32.303Z,95.07
2018-04-15T03:46:59.958Z,99.18
2018-04-15T03:49:28.361Z,104.45
2018-04-15T03:51:55.987Z,87.55
2018-04-15T03:54:23.634Z,99.37
2018-04-15T03:56:51.267Z,106.72
2018-04-15T03:59:18.957Z,78.22
2018-04-15T04:01:47.361Z,123.30
2018-04-15T04:04:14.992Z,88.03
2018-04-15T04:06:43.347Z,93.37
2018-04-15T04:09:10.966Z,83.40
2018-04-15T04:11:38.544Z,95.75
2018-04-15T04:14:06.187Z,128.73
2018-04-15T04:16:33.784Z,96.45
2018-04-15T04:19:13.112Z,95.20
2018-04-15T04:21:52.353Z,97.05
2018-04-15T04:24:31.628Z,104.80
2018-04-15T04:27:00.103Z,85.38
2018-04-15T04:29:28.506Z,106.80
2018-04-15T04:31:56.222Z,86.22
2018-04-15T04:34:24.713Z,108.20
2018-04-15T04:36:52.310Z,98.75
2018-04-15T04:39:20.988Z,104.03
2018-04-15T04:41:48.603Z,101.62
2018-04-15T04:44:16.705Z,97.97
2018-04-15T04:46:45.919Z,98.70
2018-04-15T04:49:13.561Z,114.57
2018-04-15T04:51:41.955Z,102.12
2018-04-15T04:54:09.665Z,129.85
2018-04-15T04:56:37.257Z,115.03
2018-04-15T04:59:05.638Z,121.03
2018-04-15T05:01:33.274Z,115.65
2018-04-15T05:04:00.891Z,128.68
2018-04-15T05:06:28.523Z,101.55
2018-04-15T05:08:57.238Z,122.32
2018-04-15T05:11:24.817Z,110.57
2018-04-15T05:13:52.412Z,112.82
2018-04-15T05:16:19.973Z,107.97
2018-04-15T05:18:47.641Z,147.82
2018-04-15T05:21:15.703Z,132.37
2018-04-15T05:23:43.409Z,123.45
2018-04-15T05:26:11.132Z,134.63
2018-04-15T05:28:38.764Z,126.40
2018-04-15T05:31:06.461Z,128.45
2018-04-15T05:33:35.832Z,106.82
2018-04-15T05:36:03.477Z,128.50
2018-04-15T05:38:31.106Z,135.65
2018-04-15T05:40:59.506Z,131.10
2018-04-15T05:43:27.132Z,110.43
2018-04-15T05:45:54.786Z,164.32
2018-04-15T05:48:22.449Z,128.95
2018-04-15T05:50:50.030Z,125.75
2018-04-15T05:53:17.670Z,126.93
2018-04-15T05:55:45.304Z,117.87
2018-04-15T05:58:13.773Z,140.68
2018-04-15T06:00:41.406Z,133.73
2018-04-15T06:03:09.011Z,124.45
2018-04-15T06:05:36.597Z,147.80
2018-04-15T06:08:04.206Z,131.18
2018-04-15T06:10:32.714Z,134.57
2018-04-15T06:13:00.346Z,146.23
2018-04-15T06:15:27.984Z,133.85
2018-04-15T06:17:57.069Z,145.18
2018-04-15T06:20:24.707Z,130.82
2018-04-15T06:22:52.665Z,138.55
2018-04-15T06:25:20.299Z,146.55
2018-04-15T06:27:48.679Z,118.80
2018-04-15T06:30:16.318Z,138.43
2018-04-15T06:32:45.522Z,123.62
2018-04-15T06:35:13.935Z,133.25
2018-04-15T06:37:41.591Z,142.57
2018-04-15T06:40:09.218Z,126.15
2018-04-15T06:42:37.625Z,115.47
2018-04-15T06:45:05.267Z,119.70
2018-04-15T06:47:32.937Z,135.50
2018-04-15T06:50:00.684Z,130.57
2018-04-15T06:52:28.318Z,136.30
2018-04-15T06:54:56.020Z,131.12
2018-04-15T06:57:23.611Z,123.10
2018-04-15T06:59:52.008Z,132.82
2018-04-15T07:02:19.603Z,142.02
2018-04-15T07:04:48.021Z,141.05
2018-04-15T07:07:15.656Z,131.32
2018-04-15T07:09:43.305Z,131.82
2018-04-15T07:12:10.898Z,139.88
2018-04-15T07:14:38.894Z,121.13
2018-04-15T07:17:06.508Z,132.85
2018-04-15T07:19:34.191Z,110.37
2018-04-15T07:22:01.792Z,106.75
2018-04-15T07:24:29.485Z,123.45
2018-04-15T07:26:57.861Z,111.95
2018-04-15T07:29:26.247Z,99.65
2018-04-15T07:31:54.594Z,113.55
2018-04-15T07:34:22.190Z,102.90
2018-04-15T07:36:50.691Z,87.25
2018-04-15T07:39:18.358Z,84.40
2018-04-15T07:41:46.063Z,77.05
2018-04-15T07:44:14.036Z,80.85
2018-04-15T07:46:41.668Z,72.45
2018-04-15T07:49:09.454Z,65.18
2018-04-15T07:51:37.119Z,73.78
2018-04-15T07:54:05.181Z,68.25
2018-04-15T07:56:32.791Z,58.75
2018-04-15T07:59:00.403Z,53.53
2018-04-15T08:01:28.045Z,52.72
2018-04-15T08:03:55.724Z,56.35
2018-04-15T08:06:23.427Z,49.22
2018-04-15T08:08:51.930Z,59.83
2018-04-15T08:11:19.605Z,51.70
2018-04-15T08:13:47.233Z,51.95
2018-04-15T08:16:14.898Z,41.40
2018-04-15T08:18:43.266Z,44.40
2018-04-15T08:21:10.880Z,37.40
2018-04-15T08:23:38.684Z,39.47
2018-04-15T08:26:06.453Z,37.83
2018-04-15T08:28:34.062Z,39.72
2018-04-15T08:31:01.854Z,31.52
2018-04-15T08:33:29.481Z,21.00
2018-04-15T08:35:57.155Z,21.15
2018-04-15T08:38:25.667Z,25.50
2018-04-15T08:40:53.377Z,17.30
2018-04-15T08:43:21.040Z,20.00
2018-04-15T08:45:49.788Z,14.05
2018-04-15T08:48:17.451Z,20.53
2018-04-15T08:50:45.885Z,27.33
2018-04-15T08:53:13.624Z,16.00
2018-04-15T08:55:41.237Z,10.40
2018-04-15T08:58:08.894Z,14.90
2018-04-15T09:00:36.944Z,11.57
2018-04-15T09:03:04.660Z,14.83
2018-04-15T09:05:32.318Z,16.70
2018-04-15T09:07:59.921Z,14.33
2018-04-15T09:10:27.770Z,10.97
2018-04-15T09:12:55.413Z,11.73
2018-04-15T09:15:23.748Z,11.57
2018-04-15T09:17:51.397Z,13.73
2018-04-15T09:20:19.109Z,5.23
2018-04-15T09:22:47.360Z,11.10
2018-04-15T09:25:15.009Z,9.73
2018-04-15T09:27:42.652Z,12.00
2018-04-15T09:30:10.267Z,8.47
2018-04-15T09:32:37.875Z,9.03
2018-04-15T09:35:05.644Z,5.70
2018-04-15T09:37:33.254Z,5.47
2018-04-15T09:40:00.862Z,8.53
2018-04-15T09:42:28.531Z,8.37
2018-04-15T09:44:56.264Z,8.70
2018-04-15T09:47:23.890Z,15.60
2018-04-15T09:49:51.541Z,10.40
2018-04-15T09:52:19.151Z,10.60
2018-04-15T09:54:48.254Z,9.87
2018-04-15T09:57:15.851Z,13.63
2018-04-15T09:59:43.575Z,13.53
2018-04-15T10:02:11.814Z,10.37
2018-04-15T10:04:39.454Z,9.63
2018-04-15T10:07:07.099Z,7.60
2018-04-15T10:09:34.853Z,7.50
2018-04-15T10:12:03.108Z,12.63
2018-04-15T10:14:31.974Z,10.03
2018-04-15T10:16:59.671Z,6.57
2018-04-15T10:19:28.036Z,5.20
2018-04-15T10:21:55.702Z,5.70
2018-04-15T10:24:23.348Z,11.40
2018-04-15T10:26:50.920Z,9.37
2018-04-15T10:29:19.282Z,7.57
2018-04-15T10:31:46.944Z,9.70
2018-04-15T10:34:14.657Z,9.17
2018-04-15T10:36:42.305Z,5.30
2018-04-15T10:39:09.954Z,5.67
2018-04-15T10:41:37.595Z,4.73
2018-04-15T10:44:05.706Z,6.80
2018-04-15T10:46:33.377Z,9.03
2018-04-15T10:49:01.001Z,9.50
2018-04-15T10:51:28.613Z,5.80
2018-04-15T10:53:56.794Z,4.50
2018-04-15T10:56:24.386Z,3.50
2018-04-15T10:58:52.017Z,4.47
2018-04-15T11:01:19.629Z,4.30
2018-04-15T11:03:47.892Z,5.60
2018-04-15T11:06:16.266Z,3.23
2018-04-15T11:08:43.976Z,6.23
2018-04-15T11:11:11.628Z,6.20
2018-04-15T11:13:39.266Z,3.63
2018-04-15T11:16:07.619Z,5.30
2018-04-15T11:18:35.411Z,5.57
2018-04-15T11:21:03.795Z,3.67
2018-04-15T11:23:31.458Z,3.50
2018-04-15T11:25:59.952Z,2.87
2018-04-15T11:28:28.590Z,3.73
2018-04-15T11:30:56.192Z,3.50
2018-04-15T11:33:23.845Z,2.57
2018-04-15T11:35:51.469Z,4.63
2018-04-15T11:38:19.071Z,4.20
2018-04-15T11:40:46.777Z,9.73
2018-04-15T11:43:14.420Z,4.87
2018-04-15T11:45:41.993Z,3.90
2018-04-15T11:48:09.633Z,3.60
2018-04-15T11:50:37.271Z,4.10
2018-04-15T11:53:04.917Z,3.33
2018-04-15T11:55:32.536Z,4.67
2018-04-15T11:58:00.206Z,6.10
2018-04-15T12:00:27.942Z,6.30
2018-04-15T12:02:55.609Z,3.90
2018-04-15T12:05:23.372Z,3.57
2018-04-15T12:07:51.036Z,3.60
2018-04-15T12:10:18.687Z,4.83
2018-04-15T12:12:46.370Z,3.50
2018-04-15T12:15:14.032Z,3.53
2018-04-15T12:17:41.714Z,3.40
2018-04-15T12:20:09.452Z,4.23
2018-04-15T12:22:37.121Z,4.00
2018-04-15T12:25:04.829Z,6.40
2018-04-15T12:27:32.498Z,3.60
2018-04-15T12:30:00.142Z,5.37
2018-04-15T12:32:27.718Z,3.10
2018-04-15T12:34:55.352Z,4.10
2018-04-15T12:37:22.985Z,3.50
2018-04-15T12:39:50.615Z,3.23
2018-04-15T12:42:19.498Z,5.43
2018-04-15T12:44:47.884Z,4.37
2018-04-15T12:47:16.336Z,3.87
2018-04-15T12:49:43.934Z,5.40
2018-04-15T12:52:11.559Z,3.60
2018-04-15T12:54:39.201Z,4.67
2018-04-15T12:57:06.883Z,3.40
2018-04-15T12:59:34.569Z,5.47
2018-04-15T13:02:02.203Z,4.47
2018-04-15T13:04:29.882Z,7.47
2018-04-15T13:06:57.492Z,6.00
2018-04-15T13:09:25.167Z,6.53
2018-04-15T13:11:53.710Z,5.50
2018-04-15T13:14:21.388Z,5.80
2018-04-15T13:16:49.097Z,5.63
2018-04-15T13:19:16.776Z,5.00
2018-04-15T13:21:44.454Z,9.00
2018-04-15T13:24:12.172Z,4.83
2018-04-15T13:26:39.762Z,6.20
2018-04-15T13:29:07.401Z,5.50
2018-04-15T13:31:34.990Z,5.03
2018-04-15T13:34:03.401Z,5.10
2018-04-15T13:36:31.016Z,6.63
2018-04-15T13:38:58.708Z,12.07
2018-04-15T13:41:26.365Z,6.07
2018-04-15T13:43:53.997Z,8.00
2018-04-15T13:46:21.649Z,9.70
2018-04-15T13:48:49.278Z,5.47
2018-04-15T13:51:16.865Z,4.77
2018-04-15T13:53:44.592Z,4.70
2018-04-15T13:56:12.190Z,6.47
2018-04-15T13:58:39.797Z,5.40
2018-04-15T14:01:07.418Z,6.53
2018-04-15T14:03:35.018Z,4.47
2018-04-15T14:06:03.435Z,4.67
2018-04-15T14:08:31.052Z,4.93
2018-04-15T14:10:59.484Z,4.67
2018-04-15T14:13:27.105Z,4.60
2018-04-15T14:15:55.521Z,5.50
2018-04-15T14:18:23.175Z,4.20
2018-04-15T14:20:51.461Z,4.80
2018-04-15T14:23:19.076Z,4.33
2018-04-15T14:25:47.968Z,4.63
2018-04-15T14:28:16.368Z,5.27
2018-04-15T14:30:44.006Z,7.33
2018-04-15T14:33:12.383Z,7.17
2018-04-15T14:35:40.814Z,3.93
2018-04-15T14:38:08.417Z,4.83
2018-04-15T14:40:37.477Z,4.60
2018-04-15T14:43:05.180Z,4.77
2018-04-15T14:45:32.923Z,3.83
2018-04-15T14:48:00.533Z,4.50
2018-04-15T14:50:28.151Z,4.30
2018-04-15T14:52:55.761Z,3.93
2018-04-15T14:55:23.402Z,4.70
2018-04-15T14:57:51.028Z,4.10
2018-04-15T15:00:18.729Z,6.30
2018-04-15T15:02:46.963Z,4.20
2018-04-15T15:05:14.606Z,3.50
2018-04-15T15:07:42.236Z,4.30
2018-04-15T15:10:09.901Z,4.83
2018-04-15T15:12:38.075Z,4.90
2018-04-15T15:15:05.686Z,6.80
2018-04-15T15:17:33.293Z,4.07
2018-04-15T15:20:00.953Z,4.93
2018-04-15T15:22:28.562Z,3.80
2018-04-15T15:24:56.197Z,3.77
2018-04-15T15:27:23.965Z,3.33
2018-04-15T15:29:51.593Z,4.30
2018-04-15T15:32:19.312Z,5.60
2018-04-15T15:34:47.055Z,4.00
2018-04-15T15:37:14.651Z,3.27
2018-04-15T15:39:42.285Z,3.47
2018-04-15T15:42:10.056Z,3.87
2018-04-15T15:44:37.711Z,3.90
2018-04-15T15:47:06.117Z,4.53
2018-04-15T15:49:33.770Z,8.17
2018-04-15T15:52:02.105Z,5.33
2018-04-15T15:54:29.778Z,2.97
2018-04-15T15:56:57.458Z,4.47
2018-04-15T15:59:25.115Z,4.17
2018-04-15T16:01:53.284Z,4.23
2018-04-15T16:04:21.124Z,3.47
2018-04-15T16:06:48.732Z,3.50
2018-04-15T16:09:16.438Z,2.57
2018-04-15T16:11:44.097Z,3.00
2018-04-15T16:14:11.809Z,3.37
2018-04-15T16:16:39.470Z,2.90
2018-04-15T16:19:07.231Z,5.30
2018-04-15T16:21:35.590Z,2.53
2018-04-15T16:24:04.070Z,2.40
2018-04-15T16:26:32.428Z,2.07
2018-04-15T16:29:00.011Z,3.93
2018-04-15T16:31:27.609Z,3.57
2018-04-15T16:33:55.225Z,2.47
2018-04-15T16:36:22.796Z,2.97
2018-04-15T16:38:50.494Z,3.53
2018-04-15T16:41:18.130Z,2.70
2018-04-15T16:43:45.764Z,4.07
2018-04-15T16:46:13.441Z,2.47
2018-04-15T16:48:41.395Z,4.30
2018-04-15T16:51:09.102Z,2.60
2018-04-15T16:53:36.706Z,3.40
2018-04-15T16:56:04.367Z,4.27
2018-04-15T16:58:32.754Z,2.40
2018-04-15T17:01:00.521Z,9.70
2018-04-15T17:03:28.363Z,11.40
2018-04-15T17:05:56.028Z,15.27
2018-04-15T17:08:23.646Z,11.57
2018-04-15T17:10:51.304Z,5.90
2018-04-15T17:13:18.913Z,2.80
2018-04-15T17:15:46.564Z,7.90
2018-04-15T17:18:14.197Z,2.27
2018-04-15T17:20:41.822Z,3.57
2018-04-15T17:23:09.518Z,2.60
2018-04-15T17:25:37.239Z,10.77
2018-04-15T17:28:04.879Z,3.10
2018-04-15T17:30:33.271Z,5.80
2018-04-15T17:33:00.970Z,5.70
2018-04-15T17:35:28.613Z,3.07
2018-04-15T17:37:56.240Z,4.50
2018-04-15T17:40:23.849Z,4.03
2018-04-15T17:42:52.047Z,4.90
2018-04-15T17:45:19.663Z,4.83
2018-04-15T17:47:47.288Z,4.17
2018-04-15T17:50:14.944Z,4.60
2018-04-15T17:52:42.673Z,5.20
2018-04-15T17:55:10.313Z,4.20
2018-04-15T17:57:37.896Z,7.37
2018-04-15T18:00:05.575Z,5.47
2018-04-15T18:02:33.258Z,6.77
2018-04-15T18:05:00.832Z,4.03
2018-04-15T18:07:28.431Z,6.60
2018-04-15T18:09:56.322Z,5.00
2018-04-15T18:12:24.031Z,6.40
2018-04-15T18:14:52.454Z,4.63
2018-04-15T18:17:20.393Z,10.20
2018-04-15T18:19:48.787Z,9.87
2018-04-15T18:22:16.906Z,8.67
2018-04-15T18:24:44.593Z,7.20
2018-04-15T18:27:12.961Z,8.33
2018-04-15T18:29:40.634Z,8.77
2018-04-15T18:32:08.253Z,12.43
2018-04-15T18:34:35.887Z,9.93
2018-04-15T18:37:03.842Z,6.40
2018-04-15T18:39:32.517Z,5.43
2018-04-15T18:42:00.581Z,5.00
2018-04-15T18:44:28.197Z,4.60
2018-04-15T18:46:55.830Z,8.87
2018-04-15T18:49:23.473Z,6.30
2018-04-15T18:51:51.323Z,6.77
2018-04-15T18:54:18.979Z,6.23
2018-04-15T18:56:47.411Z,19.93
2018-04-15T18:59:15.033Z,13.33
2018-04-15T19:01:42.700Z,9.13
2018-04-15T19:04:10.345Z,11.20
2018-04-15T19:06:38.021Z,11.70
2018-04-15T19:09:06.522Z,24.53
2018-04-15T19:11:34.127Z,13.57
2018-04-15T19:14:02.137Z,7.77
2018-04-15T19:16:29.803Z,5.83
2018-04-15T19:18:58.278Z,7.90
2018-04-15T19:21:27.566Z,10.40
2018-04-15T19:23:56.496Z,8.30
2018-04-15T19:26:24.446Z,7.53
2018-04-15T19:28:52.869Z,8.23
2018-04-15T19:31:20.557Z,9.33
2018-04-15T19:33:48.191Z,10.57
2018-04-15T19:36:15.809Z,8.73
2018-04-15T19:38:43.495Z,13.57
2018-04-15T19:41:11.733Z,21.27
2018-04-15T19:43:39.390Z,8.50
2018-04-15T19:46:07.097Z,8.60
2018-04-15T19:48:35.877Z,29.77
2018-04-15T19:51:03.514Z,12.70
2018-04-15T19:53:31.132Z,10.37
2018-04-15T19:55:58.772Z,20.20
2018-04-15T19:58:26.403Z,12.00
2018-04-15T20:00:54.982Z,13.83
2018-04-15T20:03:22.674Z,16.43
2018-04-15T20:05:50.410Z,11.23
2018-04-15T20:08:18.846Z,14.67
2018-04-15T20:10:46.565Z,11.97
2018-04-15T20:13:14.325Z,11.50
2018-04-15T20:15:42.722Z,11.93
2018-04-15T20:18:10.324Z,11.87
2018-04-15T20:20:38.065Z,12.20
2018-04-15T20:23:05.653Z,11.10
2018-04-15T20:25:33.266Z,12.90
2018-04-15T20:28:00.932Z,14.50
2018-04-15T20:30:28.613Z,29.70
2018-04-15T20:32:56.353Z,12.70
2018-04-15T20:35:23.984Z,34.23
2018-04-15T20:37:51.615Z,80.23
2018-04-15T20:40:19.309Z,26.27
2018-04-15T20:42:46.982Z,35.87
2018-04-15T20:45:14.642Z,44.87
2018-04-15T20:47:42.311Z,32.03
2018-04-15T20:50:10.004Z,77.00
2018-04-15T20:52:38.568Z,55.23
2018-04-15T20:55:06.177Z,24.30
2018-04-15T20:57:33.932Z,41.57
2018-04-15T21:00:01.742Z,31.50
2018-04-15T21:02:29.459Z,14.17
2018-04-15T21:04:57.166Z,13.40
2018-04-15T21:07:24.837Z,13.53
2018-04-15T21:09:53.215Z,14.43
2018-04-15T21:12:21.696Z,37.53
2018-04-15T21:14:49.374Z,12.50
2018-04-15T21:17:17.942Z,13.80
2018-04-15T21:19:45.631Z,17.93
2018-04-15T21:22:14.812Z,11.70
2018-04-15T21:24:42.507Z,17.17
2018-04-15T21:27:10.282Z,13.60
2018-04-15T21:29:37.886Z,35.63
2018-04-15T21:32:05.918Z,24.73
2018-04-15T21:34:33.724Z,27.60
2018-04-15T21:37:01.413Z,37.70
2018-04-15T21:39:29.178Z,35.33
2018-04-15T21:41:56.817Z,13.40
2018-04-15T21:44:24.489Z,12.30
2018-04-15T21:46:52.857Z,13.77
2018-04-15T21:49:20.489Z,28.87
2018-04-15T21:51:48.092Z,15.00
2018-04-15T21:54:15.767Z,25.85
2018-04-15T21:56:44.144Z,113.00
2018-04-15T21:59:11.804Z,106.33
2018-04-15T22:01:39.481Z,14.97
2018-04-15T22:04:07.112Z,18.00
2018-04-15T22:06:34.814Z,63.20
2018-04-15T22:09:02.472Z,38.40
2018-04-15T22:11:41.837Z,26.47
2018-04-15T22:14:09.467Z,14.07
2018-04-15T22:16:37.146Z,12.90
2018-04-15T22:19:04.765Z,14.00
2018-04-15T22:21:32.370Z,12.93
2018-04-15T22:24:00.784Z,12.90
2018-04-15T22:26:28.383Z,11.70
2018-04-15T22:28:56.193Z,13.37
2018-04-15T22:31:23.875Z,12.30
2018-04-15T22:33:51.534Z,12.33
2018-04-15T22:36:19.144Z,12.60
2018-04-15T22:38:46.755Z,12.73
2018-04-15T22:41:14.326Z,12.93
2018-04-15T22:43:41.985Z,12.75
2018-04-15T22:46:09.611Z,14.80
2018-04-15T22:48:42.837Z,14.47
2018-04-15T22:51:10.458Z,15.48
2018-04-15T22:53:38.168Z,15.50
2018-04-15T22:56:10.191Z,16.00
2018-04-15T22:58:43.409Z,17.50
2018-04-15T23:01:11.822Z,16.42
2018-04-15T23:03:39.487Z,16.35
2018-04-15T23:06:07.211Z,16.27
2018-04-15T23:08:34.924Z,14.30
2018-04-15T23:11:02.709Z,14.55
2018-04-15T23:13:30.355Z,14.87
2018-04-15T23:15:58.583Z,14.80
2018-04-15T23:18:26.317Z,17.05
2018-04-15T23:20:53.977Z,15.70
2018-04-15T23:23:21.662Z,15.77
2018-04-15T23:25:49.870Z,18.40
2018-04-15T23:28:17.556Z,19.42
2018-04-15T23:30:45.227Z,16.60
2018-04-15T23:33:12.899Z,23.38
2018-04-15T23:35:40.638Z,17.62
2018-04-15T23:38:08.376Z,16.83
2018-04-15T23:40:36.265Z,16.85
2018-04-15T23:43:03.956Z,19.00
2018-04-15T23:45:31.805Z,18.15
2018-04-15T23:47:59.421Z,16.20
2018-04-15T23:50:27.054Z,16.48
2018-04-15T23:52:54.683Z,19.52
2018-04-15T23:55:22.377Z,17.48
2018-04-15T23:57:50.013Z,18.15
